SUT weather

Brunswick County Airport
Oak Island, North Carolina, United States

Public forecast

Using degrees Fahrenheit for public forecast. Weather courtesy of forecast.io.

Current aviation weather report (METAR) for Brunswick County Airport

Retrieved 2019/10/19 06:35 UTC (16 minutes ago):

KSUT 190635Z AUTO 00000KT 10SM CLR 10/08 A3005 RMK AO2 T01010078

Closest aviation forecast (TAF) to Brunswick County Airport

Closest forecast is Wilmington International Airport, 22.2 nm (41.1 km) NNE. Retrieved 2019/10/19 06:22 UTC (29 minutes ago):

TAF KILM 190520Z 1906/2006 10006KT P6SM FEW250 FM191700 12012G20KT P6SM VCSH OVC050 FM192100 12010G18KT 6SM SHRA OVC010 FM200100 12015G25KT 3SM SHRA BR OVC010